Time;durP1;ratioP1;P1;durP2;ratioP2;P2;SDS_P1;SDS_P2;PMS_P1;PMS_P2;Temp;Humidity;BMP_temperature;BMP_pressure;BME280_temperature;BME280_humidity;BME280_pressure;Samples;Min_cycle;Max_cycle;Signal;HPM_P1;HPM_P2
2023/10/19 00:00:40;;;;;;;11.35;7.78;;;;;;;13.52;83.30;97782.97;6332487;22;19999;-94
2023/10/19 00:03:06;;;;;;;9.70;6.22;;;;;;;13.64;82.82;97778.72;6330689;22;20014;-93
2023/10/19 00:05:32;;;;;;;66.43;59.40;;;;;;;13.53;83.69;97770.06;6332099;22;20011;-94
2023/10/19 00:08:00;;;;;;;10.07;7.45;;;;;;;13.73;83.43;97754.81;6336458;22;20464;-95
2023/10/19 00:10:32;;;;;;;9.88;5.38;;;;;;;13.76;83.06;97753.34;6335322;22;20007;-94
2023/10/19 00:13:03;;;;;;;17.98;16.10;;;;;;;13.60;83.95;97751.22;6333397;22;20461;-94
2023/10/19 00:15:31;;;;;;;71.28;66.55;;;;;;;13.48;84.65;97742.91;6331973;22;20365;-94
2023/10/19 00:17:59;;;;;;;20.63;19.05;;;;;;;13.52;84.84;97752.06;6332150;22;20011;-96
2023/10/19 00:20:37;;;;;;;11.25;10.15;;;;;;;13.49;85.18;97744.50;6331946;22;20002;-94
2023/10/19 00:23:05;;;;;;;279.15;132.57;;;;;;;13.48;85.23;97743.72;6332454;22;20424;-95
2023/10/19 00:25:34;;;;;;;51.08;46.42;;;;;;;13.48;85.23;97748.38;6332204;22;20109;-95
2023/10/19 00:28:01;;;;;;;181.25;165.10;;;;;;;13.52;85.50;97746.59;6332130;22;20017;-95
2023/10/19 00:30:30;;;;;;;487.40;345.00;;;;;;;13.43;85.62;97736.50;6332361;22;20002;-95
2023/10/19 00:33:33;;;;;;;135.23;121.68;;;;;;;13.59;85.56;97733.19;6335179;22;20006;-93
2023/10/19 02:24:40;;;;;;;11.45;8.50;;;;;;;14.02;91.56;97716.69;6320356;22;20031;-89
2023/10/19 02:27:06;;;;;;;10.30;5.95;;;;;;;14.06;91.31;97711.31;6333508;22;20014;-88
2023/10/19 02:29:31;;;;;;;62.67;31.65;;;;;;;14.14;90.80;97713.19;6332613;22;20050;-88
2023/10/19 02:31:57;;;;;;;13.90;6.13;;;;;;;14.08;91.22;97715.34;6333054;22;20052;-89
2023/10/19 02:34:22;;;;;;;9.52;5.00;;;;;;;14.11;90.95;97719.34;6332790;22;20013;-88
2023/10/19 02:36:48;;;;;;;9.15;5.35;;;;;;;14.21;90.36;97713.44;6339284;22;20074;-89
2023/10/19 02:39:14;;;;;;;12.07;5.88;;;;;;;14.17;90.50;97717.19;6339029;22;20053;-89
2023/10/19 02:41:44;;;;;;;9.30;5.65;;;;;;;14.07;90.82;97719.22;6336628;22;20416;-89
2023/10/19 02:46:50;;;;;;;9.30;5.28;;;;;;;14.31;89.73;97695.75;6334156;22;20017;-89
2023/10/19 02:49:20;;;;;;;12.57;5.20;;;;;;;14.36;89.46;97698.25;6332838;22;20003;-88
2023/10/19 02:51:47;;;;;;;7.68;4.10;;;;;;;14.34;89.90;97705.22;6332663;22;20007;-89
2023/10/19 02:54:20;;;;;;;7.63;4.25;;;;;;;14.30;89.70;97698.84;6305033;22;20155;-87
2023/10/19 02:56:48;;;;;;;9.93;6.03;;;;;;;14.41;89.47;97704.66;6332156;22;20009;-87
2023/10/19 02:59:15;;;;;;;7.65;4.32;;;;;;;14.31;90.25;97705.91;6305047;22;20068;-86
2023/10/19 03:01:44;;;;;;;6.95;4.75;;;;;;;14.47;89.35;97698.63;6332369;22;19999;-87
2023/10/19 03:04:12;;;;;;;7.20;4.05;;;;;;;14.45;89.90;97705.59;6304702;22;20011;-87
2023/10/19 03:06:40;;;;;;;12.60;11.43;;;;;;;14.35;90.07;97704.91;6332249;22;20006;-87
2023/10/19 03:09:22;;;;;;;7.53;4.20;;;;;;;14.40;90.04;97703.06;6332491;22;20024;-87
2023/10/19 03:11:52;;;;;;;8.13;3.05;;;;;;;14.45;90.24;97697.34;6332268;22;20010;-87
2023/10/19 03:14:17;;;;;;;7.75;3.60;;;;;;;14.41;90.54;97693.69;6331861;22;20025;-87
2023/10/19 03:16:43;;;;;;;8.32;3.70;;;;;;;14.34;90.43;97689.56;6332347;22;20015;-87
2023/10/19 03:19:08;;;;;;;14.25;5.45;;;;;;;14.58;89.67;97693.47;6304505;22;20351;-87
2023/10/19 03:21:42;;;;;;;11.13;4.63;;;;;;;14.56;89.53;97693.00;6332335;22;20080;-87
2023/10/19 03:24:23;;;;;;;9.90;8.93;;;;;;;14.45;89.90;97684.47;6332673;22;20399;-87
2023/10/19 03:26:54;;;;;;;8.35;5.10;;;;;;;14.61;89.94;97682.97;6332423;22;20436;-87
2023/10/19 03:29:28;;;;;;;8.32;4.55;;;;;;;14.69;89.46;97687.53;6332075;22;20011;-87
2023/10/19 03:31:55;;;;;;;8.00;4.28;;;;;;;14.63;89.45;97686.16;6332287;22;20042;-87
2023/10/19 03:34:23;;;;;;;16.05;8.60;;;;;;;14.61;89.28;97686.50;6331694;22;20412;-86
2023/10/19 03:36:50;;;;;;;7.57;4.13;;;;;;;14.67;89.26;97689.81;6304242;22;20071;-87
2023/10/19 03:39:17;;;;;;;6.35;2.50;;;;;;;14.66;89.48;97678.06;6332259;22;20074;-87
2023/10/19 03:41:44;;;;;;;12.48;3.72;;;;;;;14.74;88.68;97679.09;6331894;22;20355;-86
2023/10/19 03:44:25;;;;;;;6.63;3.28;;;;;;;14.77;88.64;97661.94;6303876;22;20090;-87
2023/10/19 03:49:37;;;;;;;10.27;3.58;;;;;;;14.61;89.07;97663.75;6332129;22;20022;-87
2023/10/19 03:52:20;;;;;;;6.32;3.22;;;;;;;14.80;88.59;97653.03;6331733;22;20011;-87
2023/10/19 03:54:47;;;;;;;5.38;2.95;;;;;;;14.75;88.56;97652.44;6331735;22;20424;-87
2023/10/19 03:57:22;;;;;;;9.07;6.50;;;;;;;14.76;88.30;97659.53;6332631;22;20420;-87
2023/10/19 03:59:58;;;;;;;4.40;2.75;;;;;;;14.86;88.20;97652.81;6304916;22;20422;-87
2023/10/19 04:02:28;;;;;;;5.82;3.25;;;;;;;14.79;88.03;97654.16;6331583;22;20022;-87
2023/10/19 04:04:55;;;;;;;5.28;2.22;;;;;;;14.90;87.79;97654.53;6333325;22;20089;-91
2023/10/19 04:07:21;;;;;;;11.13;9.60;;;;;;;14.89;87.25;97657.63;6332316;22;20002;-92
2023/10/19 04:12:35;;;;;;;4.82;2.53;;;;;;;14.91;87.16;97645.13;6331817;22;20029;-91
2023/10/19 04:15:16;;;;;;;7.57;2.88;;;;;;;14.93;87.10;97642.84;6304761;22;20011;-91
2023/10/19 04:17:43;;;;;;;6.65;2.53;;;;;;;14.86;87.18;97647.31;6332321;22;20010;-92
2023/10/19 04:20:41;;;;;;;6.68;2.60;;;;;;;14.99;86.55;97634.41;6303797;22;20015;-92
2023/10/19 04:22:55;;;;;;;4.22;2.33;;;;;;;14.98;87.30;97641.81;6330964;22;20037;-92
2023/10/19 04:25:20;;;;;;;4.65;2.28;;;;;;;14.90;86.93;97645.50;6331921;22;20015;-92
2023/10/19 04:27:48;;;;;;;4.55;2.03;;;;;;;15.03;86.81;97641.56;6331632;22;20003;-91
2023/10/19 04:30:21;;;;;;;4.70;2.17;;;;;;;15.09;86.43;97641.34;6332225;22;20005;-91
2023/10/19 04:32:47;;;;;;;5.57;2.47;;;;;;;15.02;86.57;97634.50;6331603;22;20086;-91
2023/10/19 04:35:14;;;;;;;7.20;3.05;;;;;;;15.07;86.23;97636.22;6331444;22;20041;-91
2023/10/19 04:37:42;;;;;;;5.47;3.88;;;;;;;15.03;86.44;97636.09;6331424;22;20421;-92
2023/10/19 04:40:11;;;;;;;6.78;2.45;;;;;;;15.16;85.93;97630.56;6331600;22;20430;-92
2023/10/19 04:42:37;;;;;;;5.78;2.17;;;;;;;15.07;85.69;97625.22;6331431;22;20010;-92
2023/10/19 04:45:05;;;;;;;5.35;1.80;;;;;;;15.12;85.84;97621.44;6305324;22;20013;-92
2023/10/19 04:47:30;;;;;;;4.93;2.33;;;;;;;15.12;86.17;97635.16;6333583;22;20301;-92
2023/10/19 04:49:55;;;;;;;4.97;3.28;;;;;;;15.01;85.55;97627.41;6333353;22;19999;-92
2023/10/19 04:52:21;;;;;;;5.85;2.28;;;;;;;15.17;85.71;97621.19;6333467;22;20046;-92
2023/10/19 04:54:46;;;;;;;7.55;2.85;;;;;;;15.15;86.26;97628.97;6333595;22;20009;-91
2023/10/19 04:57:12;;;;;;;4.35;1.90;;;;;;;15.11;86.52;97633.56;6332917;22;20006;-92
2023/10/19 04:59:37;;;;;;;3.97;2.28;;;;;;;15.09;86.02;97627.63;6333598;22;20203;-91
2023/10/19 05:02:04;;;;;;;8.00;3.08;;;;;;;15.07;86.59;97629.91;6335069;22;20010;-91
2023/10/19 05:04:29;;;;;;;7.50;2.22;;;;;;;15.24;85.64;97618.66;6338162;22;20003;-91
2023/10/19 05:06:55;;;;;;;4.80;2.22;;;;;;;15.08;86.33;97617.78;6336955;22;20090;-92
2023/10/19 05:09:20;;;;;;;7.18;2.25;;;;;;;15.15;85.83;97615.25;6334477;22;19999;-92
2023/10/19 05:11:45;;;;;;;7.43;2.35;;;;;;;15.13;85.84;97623.03;6334114;22;20082;-94
2023/10/19 05:14:14;;;;;;;5.07;2.45;;;;;;;15.05;85.88;97628.31;6306039;22;20011;-87
2023/10/19 05:16:40;;;;;;;6.45;2.58;;;;;;;15.00;86.25;97636.78;6333357;22;20003;-87
2023/10/19 05:19:05;;;;;;;5.88;2.08;;;;;;;15.10;85.52;97635.50;6333612;22;20003;-87
2023/10/19 05:21:30;;;;;;;29.35;5.68;;;;;;;15.05;85.90;97636.53;6305750;22;20013;-87
2023/10/19 05:23:56;;;;;;;6.03;2.30;;;;;;;15.11;85.46;97639.81;6333364;22;20015;-87
2023/10/19 05:26:21;;;;;;;6.32;3.33;;;;;;;15.08;85.66;97647.97;6333101;22;20030;-87
2023/10/19 05:28:47;;;;;;;6.50;2.88;;;;;;;15.09;85.55;97644.09;6333376;22;20013;-88
2023/10/19 05:31:13;;;;;;;9.25;3.20;;;;;;;15.08;85.69;97634.25;6333282;22;20079;-88
2023/10/19 05:33:38;;;;;;;5.82;3.85;;;;;;;15.15;85.43;97631.72;6332549;22;20018;-88
2023/10/19 05:36:05;;;;;;;7.88;3.47;;;;;;;15.10;85.17;97634.69;6332765;22;20061;-87
2023/10/19 05:38:32;;;;;;;8.82;2.85;;;;;;;15.08;85.42;97629.56;6333708;22;20003;-88
2023/10/19 05:40:58;;;;;;;6.07;2.75;;;;;;;15.02;85.78;97637.25;6333363;22;20003;-88
2023/10/19 05:43:28;;;;;;;8.90;3.08;;;;;;;15.04;85.70;97634.94;6332353;22;20274;-88
2023/10/19 05:45:53;;;;;;;4.85;2.78;;;;;;;15.18;85.31;97636.50;6332846;22;20014;-88
2023/10/19 05:48:20;;;;;;;5.80;2.25;;;;;;;15.13;84.95;97639.50;6304978;22;20003;-88
2023/10/19 05:50:45;;;;;;;8.75;3.85;;;;;;;14.97;85.36;97642.94;6332661;22;20161;-88
2023/10/19 05:53:11;;;;;;;5.75;2.75;;;;;;;14.98;85.58;97644.56;6333604;22;20061;-88
2023/10/19 05:55:36;;;;;;;9.02;3.03;;;;;;;15.03;85.51;97647.06;6332130;22;20007;-88
2023/10/19 05:58:05;;;;;;;5.43;2.60;;;;;;;14.99;85.91;97639.88;6332963;22;20030;-87
2023/10/19 06:00:30;;;;;;;7.60;2.97;;;;;;;15.05;85.61;97644.75;6333220;22;20007;-88
2023/10/19 06:02:57;;;;;;;6.95;3.38;;;;;;;14.87;86.26;97643.44;6332647;22;20010;-88
2023/10/19 06:05:23;;;;;;;6.25;2.45;;;;;;;15.07;86.03;97644.44;6332617;22;20010;-88
2023/10/19 06:07:49;;;;;;;6.93;2.85;;;;;;;15.08;86.02;97654.25;6333239;22;20006;-88
2023/10/19 06:10:20;;;;;;;8.25;2.75;;;;;;;15.04;85.78;97648.66;6332655;22;20010;-88
2023/10/19 06:12:47;;;;;;;7.57;2.97;;;;;;;15.20;85.15;97653.44;6332730;22;20135;-88
2023/10/19 06:15:14;;;;;;;8.35;2.97;;;;;;;15.14;85.02;97652.06;6332955;22;20006;-88
2023/10/19 06:17:40;;;;;;;7.90;3.33;;;;;;;15.20;85.42;97667.16;6332547;22;20055;-88
2023/10/19 06:20:19;;;;;;;7.00;2.90;;;;;;;15.11;85.54;97669.25;6332774;22;20007;-88
2023/10/19 06:23:04;;;;;;;6.22;2.90;;;;;;;15.16;85.94;97667.03;6305556;22;20061;-95
2023/10/19 06:25:30;;;;;;;5.78;3.15;;;;;;;15.29;85.21;97675.25;6305280;22;20030;-88
2023/10/19 06:27:57;;;;;;;7.63;3.00;;;;;;;15.25;84.54;97675.16;6333215;22;20070;-88
2023/10/19 06:30:23;;;;;;;7.88;3.60;;;;;;;15.23;84.93;97676.63;6305454;22;20011;-88
2023/10/19 06:32:50;;;;;;;8.45;3.78;;;;;;;15.24;84.94;97678.22;6332273;22;20096;-88
2023/10/19 06:35:16;;;;;;;7.88;3.55;;;;;;;15.27;84.91;97683.84;6332756;22;20386;-88
2023/10/19 06:37:42;;;;;;;6.53;3.50;;;;;;;15.32;84.21;97673.72;6331907;22;20337;-88
2023/10/19 06:40:08;;;;;;;7.57;3.42;;;;;;;15.28;84.77;97673.63;6332380;22;20034;-88
2023/10/19 06:42:35;;;;;;;6.40;3.95;;;;;;;15.10;85.43;97684.09;6332619;22;20010;-88
2023/10/19 06:45:00;;;;;;;10.18;4.13;;;;;;;15.01;86.13;97681.50;6332930;22;20464;-88
2023/10/19 06:47:25;;;;;;;9.57;4.38;;;;;;;15.05;86.01;97685.91;6332688;22;20034;-88
2023/10/19 06:49:51;;;;;;;7.67;4.00;;;;;;;15.13;86.04;97684.19;6332609;22;20214;-88
2023/10/19 06:52:16;;;;;;;17.20;4.27;;;;;;;15.10;85.72;97678.59;6332701;22;20227;-88
2023/10/19 06:54:41;;;;;;;8.43;3.97;;;;;;;15.00;86.48;97683.44;6332337;22;20285;-88
2023/10/19 06:57:08;;;;;;;7.57;3.65;;;;;;;14.97;86.45;97692.34;6332058;22;20223;-88
2023/10/19 06:59:33;;;;;;;9.43;4.07;;;;;;;15.05;86.33;97688.66;6304234;22;20007;-88
2023/10/19 07:02:01;;;;;;;6.32;3.40;;;;;;;15.18;86.02;97694.13;6332472;22;20013;-88
2023/10/19 07:04:26;;;;;;;12.35;4.25;;;;;;;15.16;85.83;97693.69;6332482;22;20045;-88
2023/10/19 07:06:51;;;;;;;9.15;4.28;;;;;;;15.17;86.05;97690.59;6332115;22;20007;-88
2023/10/19 07:09:18;;;;;;;7.30;3.88;;;;;;;15.29;85.59;97698.00;6332716;22;20011;-88
2023/10/19 07:11:44;;;;;;;7.68;4.72;;;;;;;15.24;85.76;97700.19;6332466;22;20003;-88
2023/10/19 07:14:10;;;;;;;12.40;4.38;;;;;;;15.29;85.69;97691.72;6304143;22;20010;-88
2023/10/19 07:16:36;;;;;;;6.32;2.78;;;;;;;15.39;85.41;97690.44;6332595;22;20011;-88
2023/10/19 07:19:01;;;;;;;8.77;3.78;;;;;;;15.40;85.05;97700.25;6332155;22;20448;-88
2023/10/19 07:21:29;;;;;;;6.13;3.08;;;;;;;15.39;85.61;97687.69;6332164;22;20010;-88
2023/10/19 07:23:55;;;;;;;6.32;2.75;;;;;;;15.42;85.40;97694.44;6336246;22;20014;-88
2023/10/19 07:26:30;;;;;;;5.85;2.65;;;;;;;15.48;85.23;97699.31;6337143;22;20002;-88
2023/10/19 07:28:55;;;;;;;5.78;2.47;;;;;;;15.60;84.78;97705.94;6333973;22;20414;-88
2023/10/19 07:31:21;;;;;;;4.60;2.22;;;;;;;15.59;84.94;97698.81;6332272;22;20359;-88
2023/10/19 07:33:47;;;;;;;6.45;2.50;;;;;;;15.59;84.89;97696.06;6331909;22;20093;-91
2023/10/19 07:36:14;;;;;;;8.43;3.33;;;;;;;15.46;84.84;97707.09;6332092;22;20696;-90
2023/10/19 07:38:40;;;;;;;5.70;2.75;;;;;;;15.52;85.31;97700.22;6331910;22;20448;-90
2023/10/19 07:41:05;;;;;;;8.02;2.80;;;;;;;15.67;84.88;97708.88;6331869;22;20052;-90
2023/10/19 07:43:31;;;;;;;6.03;3.00;;;;;;;15.78;84.10;97705.63;6331987;22;20002;-90
2023/10/19 07:45:56;;;;;;;5.45;3.22;;;;;;;15.58;84.73;97708.22;6332074;22;20215;-90
2023/10/19 07:48:22;;;;;;;8.70;2.88;;;;;;;15.68;84.80;97710.44;6332420;22;20003;-90
2023/10/19 07:50:47;;;;;;;9.27;2.55;;;;;;;15.71;84.37;97715.25;6332323;22;20747;-91
2023/10/19 07:53:12;;;;;;;8.20;2.72;;;;;;;15.67;84.89;97710.81;6331718;22;20002;-90
2023/10/19 07:55:39;;;;;;;6.75;2.25;;;;;;;15.73;85.04;97710.22;6332055;22;20013;-90
2023/10/19 07:58:04;;;;;;;4.05;2.00;;;;;;;15.74;84.98;97711.81;6332228;22;20014;-90
2023/10/19 08:00:31;;;;;;;5.05;2.25;;;;;;;15.90;84.22;97705.56;6332108;22;20034;-90
2023/10/19 08:02:56;;;;;;;4.18;2.05;;;;;;;15.96;84.03;97706.09;6331757;22;20007;-90
2023/10/19 08:05:22;;;;;;;5.50;1.67;;;;;;;15.94;83.87;97702.91;6332258;22;20061;-90
2023/10/19 08:07:47;;;;;;;5.85;2.75;;;;;;;15.91;84.28;97709.91;6332106;22;20346;-90
2023/10/19 08:10:15;;;;;;;7.47;3.28;;;;;;;15.87;84.11;97709.00;6303805;22;20187;-90
2023/10/19 08:12:41;;;;;;;10.50;3.45;;;;;;;15.87;84.24;97709.81;6304676;22;20011;-90
2023/10/19 08:15:11;;;;;;;5.78;2.15;;;;;;;15.93;84.28;97706.78;6331947;22;20007;-90
2023/10/19 08:17:38;;;;;;;7.75;2.10;;;;;;;15.88;84.62;97711.41;6331624;22;20082;-90
2023/10/19 08:20:08;;;;;;;4.25;2.13;;;;;;;15.88;84.86;97705.13;6331935;22;20060;-90
2023/10/19 08:22:34;;;;;;;4.50;1.85;;;;;;;16.04;84.10;97707.13;6331891;22;20014;-90
2023/10/19 08:24:59;;;;;;;4.43;2.78;;;;;;;15.97;84.36;97705.75;6331818;22;20329;-89
2023/10/19 08:27:24;;;;;;;8.10;2.87;;;;;;;15.89;85.26;97706.72;6332149;22;20481;-90
2023/10/19 08:29:50;;;;;;;4.43;2.17;;;;;;;16.07;84.51;97709.16;6331393;22;20231;-89
2023/10/19 08:32:16;;;;;;;10.48;3.17;;;;;;;16.09;84.90;97710.41;6331460;22;20010;-90
2023/10/19 08:34:41;;;;;;;5.20;2.15;;;;;;;16.25;84.06;97708.84;6331329;22;20448;-90
2023/10/19 08:37:07;;;;;;;6.53;2.50;;;;;;;16.31;83.92;97705.47;6331829;22;20002;-90
2023/10/19 08:39:38;;;;;;;6.68;3.47;;;;;;;16.01;84.41;97705.06;6331789;22;20455;-91
2023/10/19 08:42:04;;;;;;;4.97;1.90;;;;;;;16.30;83.92;97703.06;6331496;22;20444;-90
2023/10/19 08:44:30;;;;;;;8.50;2.33;;;;;;;16.31;83.59;97699.97;6331987;22;20010;-87
2023/10/19 08:46:57;;;;;;;5.60;1.75;;;;;;;16.35;83.80;97689.06;6331836;22;20041;-88
2023/10/19 08:49:23;;;;;;;7.82;1.98;;;;;;;16.42;83.60;97702.19;6331629;22;20303;-88
2023/10/19 08:51:51;;;;;;;6.47;2.13;;;;;;;16.58;82.72;97688.44;6304384;22;20014;-88
2023/10/19 08:54:16;;;;;;;9.40;2.05;;;;;;;16.57;83.29;97695.09;6331202;22;20006;-88
2023/10/19 08:56:42;;;;;;;3.53;1.83;;;;;;;16.57;82.70;97687.66;6331763;22;20003;-88
2023/10/19 08:59:10;;;;;;;4.88;2.22;;;;;;;16.63;82.75;97693.69;6331824;22;20427;-88
2023/10/19 09:01:36;;;;;;;13.27;2.42;;;;;;;16.67;83.09;97683.56;6331848;22;20003;-88
2023/10/19 09:04:02;;;;;;;9.18;3.00;;;;;;;16.76;82.95;97685.31;6331391;22;20026;-88
2023/10/19 09:06:29;;;;;;;7.25;2.47;;;;;;;16.76;83.04;97690.81;6332034;22;20007;-88
2023/10/19 09:08:55;;;;;;;4.82;2.40;;;;;;;16.74;83.13;97687.63;6304016;22;20010;-88
2023/10/19 09:11:21;;;;;;;4.85;2.60;;;;;;;16.70;83.77;97682.03;6330976;22;20027;-88
2023/10/19 09:13:49;;;;;;;10.65;2.95;;;;;;;16.81;83.55;97679.53;6304396;22;20013;-88
2023/10/19 09:16:20;;;;;;;8.85;2.40;;;;;;;16.82;83.07;97677.59;6331321;22;19995;-88
2023/10/19 09:18:46;;;;;;;6.60;2.65;;;;;;;16.74;83.15;97680.16;6331883;22;20002;-88
2023/10/19 09:21:25;;;;;;;6.72;2.38;;;;;;;16.71;83.18;97688.34;6331601;22;20015;-88
2023/10/19 09:23:52;;;;;;;6.88;2.53;;;;;;;16.73;83.42;97686.03;6331522;22;20010;-88
2023/10/19 09:26:18;;;;;;;10.45;2.45;;;;;;;16.71;83.49;97683.63;6330332;22;20006;-88
2023/10/19 09:28:47;;;;;;;6.22;2.70;;;;;;;16.71;83.46;97680.09;6331767;22;20055;-88
2023/10/19 09:31:13;;;;;;;7.70;2.25;;;;;;;16.57;83.58;97689.59;6332365;22;20014;-88
2023/10/19 09:33:43;;;;;;;8.40;2.97;;;;;;;16.64;83.73;97678.75;6306141;22;20099;-88
2023/10/19 09:36:13;;;;;;;7.78;2.63;;;;;;;16.65;83.65;97683.13;6332906;22;20002;-88
2023/10/19 09:38:50;;;;;;;7.75;2.92;;;;;;;16.58;84.02;97680.19;6333484;22;20102;-88
2023/10/19 09:41:21;;;;;;;9.27;3.05;;;;;;;16.61;83.85;97684.97;6337336;22;20006;-88
2023/10/19 09:43:48;;;;;;;12.30;2.30;;;;;;;16.86;83.23;97673.75;6338064;22;20002;-88
2023/10/19 09:46:21;;;;;;;7.45;2.75;;;;;;;16.94;83.14;97665.66;6335582;22;20062;-88
2023/10/19 09:48:51;;;;;;;9.75;2.67;;;;;;;16.99;83.01;97668.13;6334100;22;20014;-88
2023/10/19 09:51:18;;;;;;;8.27;2.53;;;;;;;17.04;82.92;97667.88;6333512;22;20018;-88
2023/10/19 11:47:26;;;;;;;8.65;3.28;;;;;;;18.84;72.92;97589.09;6304824;22;20111;-89
2023/10/19 11:49:51;;;;;;;7.22;5.80;;;;;;;18.94;72.42;97582.13;6332118;22;20018;-91
2023/10/19 11:52:16;;;;;;;6.07;3.20;;;;;;;19.11;71.98;97580.78;6332337;22;20329;-90
2023/10/19 11:54:42;;;;;;;9.77;8.85;;;;;;;19.16;71.98;97574.94;6308599;22;20258;-89
2023/10/19 11:57:07;;;;;;;6.57;4.63;;;;;;;19.19;71.22;97573.41;6337487;22;20010;-92
2023/10/19 11:59:32;;;;;;;5.33;2.30;;;;;;;19.11;71.45;97570.53;6305801;22;20010;-92
2023/10/19 12:01:58;;;;;;;9.07;3.30;;;;;;;19.16;71.58;97568.66;6332896;22;20277;-93
2023/10/19 12:04:24;;;;;;;6.07;2.83;;;;;;;19.13;71.61;97572.91;6332302;22;20871;-93
2023/10/19 12:06:50;;;;;;;7.70;3.30;;;;;;;19.13;71.38;97567.38;6333051;22;20013;-94
2023/10/19 12:09:15;;;;;;;14.90;4.50;;;;;;;19.15;71.78;97562.31;6332545;22;20086;-93
2023/10/19 12:11:44;;;;;;;6.80;2.60;;;;;;;19.11;72.20;97550.41;6332543;22;20224;-93
2023/10/19 12:14:14;;;;;;;6.72;1.48;;;;;;;19.01;71.45;97541.63;6332357;22;20231;-94
2023/10/19 12:16:40;;;;;;;5.55;1.50;;;;;;;19.06;71.34;97537.72;6332502;22;20495;-95
2023/10/19 12:19:07;;;;;;;7.47;1.92;;;;;;;18.99;72.23;97541.22;6305205;22;20038;-94
2023/10/19 12:21:33;;;;;;;5.63;1.45;;;;;;;18.96;71.75;97538.38;6331158;22;20432;-94
2023/10/19 12:24:01;;;;;;;7.85;2.70;;;;;;;18.94;71.88;97538.75;6304488;22;20086;-95
2023/10/19 12:26:26;;;;;;;8.52;2.63;;;;;;;18.86;71.79;97542.59;6331888;22;19999;-94
2023/10/19 12:28:51;;;;;;;8.52;1.92;;;;;;;18.93;71.70;97544.66;6331781;22;20378;-94
2023/10/19 12:31:21;;;;;;;6.82;1.95;;;;;;;18.96;71.25;97543.91;6332140;22;20436;-95
2023/10/19 12:33:47;;;;;;;6.78;1.90;;;;;;;18.82;71.40;97541.75;6332121;22;20015;-94
2023/10/19 12:36:31;;;;;;;6.97;2.10;;;;;;;18.91;71.27;97547.81;6304438;22;20140;-96
2023/10/19 12:38:57;;;;;;;;;;;;;;;18.89;71.57;97542.66;6333292;22;20232;-94
2023/10/19 12:41:23;;;;;;;5.13;1.23;;;;;;;18.99;71.39;97549.50;6332588;22;19917;-94
2023/10/19 12:43:52;;;;;;;5.05;1.67;;;;;;;19.01;71.58;97549.91;6332878;22;20011;-94
2023/10/19 12:46:19;;;;;;;5.32;1.58;;;;;;;18.99;71.66;97568.81;6331707;22;19999;-95
2023/10/19 12:48:46;;;;;;;7.72;2.17;;;;;;;18.79;72.14;97570.94;6298901;22;20017;-94
2023/10/19 12:51:13;;;;;;;7.15;2.13;;;;;;;18.78;71.87;97569.31;6301527;22;20007;-94
2023/10/19 12:53:38;;;;;;;5.80;1.88;;;;;;;18.77;72.19;97576.78;6300782;22;20011;-95
2023/10/19 12:56:10;;;;;;;15.73;2.75;;;;;;;18.68;72.22;97554.22;6301148;22;20142;-93
2023/10/19 12:58:35;;;;;;;5.63;1.67;;;;;;;18.66;72.55;97548.28;6300576;22;20090;-95
2023/10/19 13:01:05;;;;;;;7.77;1.47;;;;;;;18.69;72.13;97555.00;6300778;22;20034;-94
2023/10/19 13:03:32;;;;;;;17.10;4.35;;;;;;;18.72;72.26;97555.06;6300360;22;20224;-94
2023/10/19 13:05:58;;;;;;;9.88;2.53;;;;;;;18.59;72.46;97551.72;6301919;22;20023;-94
2023/10/19 13:08:27;;;;;;;7.82;3.05;;;;;;;18.57;72.75;97537.50;6302659;22;20026;-95
2023/10/19 13:10:52;;;;;;;5.65;1.67;;;;;;;18.49;73.33;97536.63;6300913;22;20085;-94
2023/10/19 13:13:18;;;;;;;7.35;2.53;;;;;;;18.56;73.04;97530.41;6301434;22;20064;-95
2023/10/19 13:15:48;;;;;;;6.00;1.63;;;;;;;18.63;72.89;97530.50;6302498;22;20010;-95
2023/10/19 13:18:19;;;;;;;5.60;1.65;;;;;;;18.65;72.89;97528.16;6302374;22;20217;-95
2023/10/19 13:20:45;;;;;;;9.07;3.08;;;;;;;18.62;73.50;97528.13;6302790;22;20141;-95
2023/10/19 13:23:21;;;;;;;4.95;1.70;;;;;;;18.61;73.61;97529.28;6302164;22;20007;-96
2023/10/19 13:25:47;;;;;;;5.47;1.80;;;;;;;18.41;73.94;97532.16;6314155;22;20011;-96
2023/10/19 13:28:13;;;;;;;6.75;2.33;;;;;;;18.47;73.94;97538.94;6314397;22;20015;-96
2023/10/19 13:30:47;;;;;;;7.93;2.15;;;;;;;18.50;73.95;97546.50;6313759;22;20207;-96
2023/10/19 13:33:13;;;;;;;12.45;3.13;;;;;;;18.51;74.16;97555.56;6312814;22;20003;-96
2023/10/19 13:35:40;;;;;;;14.15;2.63;;;;;;;18.48;74.15;97548.81;6311479;22;19995;-96
2023/10/19 13:38:07;;;;;;;6.47;2.10;;;;;;;18.49;74.27;97542.13;6313297;22;20007;-96
2023/10/19 13:40:33;;;;;;;6.68;2.65;;;;;;;18.44;74.39;97545.22;6314364;22;19991;-96
2023/10/19 13:42:59;;;;;;;5.20;2.10;;;;;;;18.33;75.22;97549.78;6313058;22;20011;-96
2023/10/19 13:45:25;;;;;;;10.23;2.38;;;;;;;18.36;75.38;97555.34;6310365;22;20030;-96
2023/10/19 13:47:54;;;;;;;7.30;1.90;;;;;;;18.30;76.42;97546.63;6312446;22;20014;-96
2023/10/19 13:50:23;;;;;;;9.75;2.47;;;;;;;18.18;77.10;97550.34;6334030;22;20030;-96
2023/10/19 13:52:53;;;;;;;9.00;3.83;;;;;;;18.14;77.95;97548.69;6333236;22;20007;-96
2023/10/19 13:55:20;;;;;;;7.22;2.67;;;;;;;17.92;79.53;97542.84;6334170;22;20030;-95
2023/10/19 13:57:45;;;;;;;12.63;2.45;;;;;;;17.93;79.49;97552.69;6334497;22;20451;-95
2023/10/19 14:00:25;;;;;;;6.45;2.63;;;;;;;18.00;79.62;97543.75;6333602;22;20007;-95
2023/10/19 14:02:51;;;;;;;7.93;2.25;;;;;;;17.96;79.69;97543.66;6338037;22;20010;-95
2023/10/19 14:05:18;;;;;;;11.75;3.20;;;;;;;18.03;80.11;97535.53;6337513;22;20829;-95
2023/10/19 14:07:44;;;;;;;7.85;3.10;;;;;;;17.85;80.45;97533.28;6333620;22;20460;-95
2023/10/19 14:10:12;;;;;;;6.10;2.67;;;;;;;17.77;80.32;97531.56;6305924;22;20025;-95
2023/10/19 14:12:41;;;;;;;9.02;2.25;;;;;;;17.92;80.55;97526.31;6333098;22;20088;-95
2023/10/19 14:15:17;;;;;;;10.05;3.55;;;;;;;17.99;80.16;97515.38;6332430;22;20003;-94
2023/10/19 14:17:44;;;;;;;10.43;2.80;;;;;;;17.95;79.97;97520.03;6332379;22;20034;-94
2023/10/19 14:20:12;;;;;;;10.23;2.50;;;;;;;17.88;80.17;97514.44;6332972;22;20053;-95
2023/10/19 14:22:41;;;;;;;10.02;2.50;;;;;;;17.91;80.25;97519.19;6305575;22;20022;-96
2023/10/19 14:25:13;;;;;;;10.20;3.63;;;;;;;18.01;80.52;97513.06;6333537;22;20058;-96
2023/10/19 14:27:40;;;;;;;12.40;1.98;;;;;;;17.92;80.38;97510.53;6333555;22;20113;-96
2023/10/19 14:30:06;;;;;;;11.93;2.03;;;;;;;17.96;80.58;97500.38;6333183;22;20290;-95
2023/10/19 14:32:32;;;;;;;9.27;2.90;;;;;;;17.95;80.46;97500.75;6332969;22;20037;-95
2023/10/19 17:52:48;;;;;;;9.43;4.67;;;;;;;17.22;84.02;97343.41;6337823;22;20087;-91
2023/10/19 17:55:20;;;;;;;9.55;4.20;;;;;;;17.30;83.92;97340.75;6337585;22;20011;-91
2023/10/19 17:58:00;;;;;;;8.23;3.93;;;;;;;17.27;83.29;97334.81;6356039;22;20013;-92
2023/10/19 18:00:46;;;;;;;8.00;4.55;;;;;;;17.20;83.42;97339.44;6360260;22;20033;-93
2023/10/19 18:03:31;;;;;;;10.07;4.38;;;;;;;17.12;83.96;97331.06;6359412;22;20025;-96
2023/10/19 18:06:08;;;;;;;11.65;4.90;;;;;;;17.10;83.64;97336.13;6362822;22;19995;-95
2023/10/19 18:08:45;;;;;;;10.30;4.80;;;;;;;17.13;83.55;97329.09;6303231;22;20002;-96
2023/10/19 18:11:17;;;;;;;8.60;5.43;;;;;;;17.06;83.79;97324.25;6277575;22;20051;-96
2023/10/19 18:14:02;;;;;;;11.45;5.43;;;;;;;16.94;83.96;97322.50;6358678;22;20060;-96
2023/10/19 18:17:09;;;;;;;6.43;3.72;;;;;;;16.96;84.26;97320.16;6338296;22;19994;-95
2023/10/19 18:19:49;;;;;;;8.63;3.67;;;;;;;16.85;84.69;97339.22;6333758;22;20003;-96
2023/10/19 18:22:22;;;;;;;18.33;4.15;;;;;;;16.76;84.86;97341.44;6333591;22;20003;-96
2023/10/19 18:25:08;;;;;;;7.95;3.55;;;;;;;16.73;85.09;97347.66;6358251;22;20421;-96
2023/10/19 18:27:33;;;;;;;8.63;3.70;;;;;;;16.74;85.08;97349.25;6336966;22;20002;-96
2023/10/19 18:29:58;;;;;;;9.45;4.18;;;;;;;16.78;84.89;97348.16;6333270;22;20010;-95
2023/10/19 18:32:24;;;;;;;10.20;4.20;;;;;;;16.73;85.24;97328.41;6332819;22;20450;-95
2023/10/19 18:34:50;;;;;;;9.70;3.88;;;;;;;16.74;84.92;97324.50;6305241;22;20011;-96
2023/10/19 18:37:16;;;;;;;9.32;3.95;;;;;;;16.78;84.69;97308.84;6333228;22;20006;-96
2023/10/19 18:39:43;;;;;;;8.07;4.40;;;;;;;16.76;84.69;97311.19;6305788;22;20062;-96
2023/10/19 18:42:11;;;;;;;12.18;3.97;;;;;;;16.70;85.04;97310.66;6304903;22;20469;-95
2023/10/19 18:44:37;;;;;;;10.95;4.32;;;;;;;16.55;85.87;97310.44;6332620;22;20070;-95